Pagrindinis puslapis
METAR-TAF:

METAR-TAF

Oro uostai :

Mysore, Indija

platuma: 12-13-48N, ilguma: 76-39-21E, Aukštis: 715 m

Dabartinis oras

Ataskaita buvo paskelbta 17 minutes, ne 13:30 UTC
Vėjas 3 kt iš Rytų/Šiaurės Rytų
Temperatūra 25°C
Drėgmė 79%
Slėgis 1015 hPa
Matomumas: 6000 m
Mažai debesys ne aukštis 2500 ft, Liūtiniai kamuoliniai debesys.
Išsisklaidę debesys ne aukštis 8000 ft

METAR: VOMY 201330Z 07003KT 6000 FEW025CB SCT080 25/21 Q1015

Laikas: 19:17 (13:47 UTC)

Prognozė

Ataskaita buvo paskelbta 5 valandos ir 47 minutes, ne 08:00 UTC
Prognozė galioja nuo 20 metu 09 UTC su 20 metu 18 UTC
Vėjas 10 kt iš Rytų
Matomumas: 6000 m
Išsisklaidę debesys ne aukštis 1200 ft
Laikinai
nuo 20 metu 12 UTC su 20 metu 15 UTC
Matomumas: 4000 m
Išsisklaidę debesys ne aukštis 1200 ft
Išsisklaidę debesys ne aukštis 1800 ft
Mažai debesys ne aukštis 2500 ft, Liūtiniai kamuoliniai debesys.
lietus, dulksna

TAF: VOMY 200800Z 2009/2018 09010KT 6000 SCT012 TEMPO 2012/2015 4000 RA DZ SCT012 SCT018 FEW025CB

Orai ataskaitas ir orų prognozės (METAR, TAF).

turimą stotys yra geltonos ir raudonos taškus žemėlapyje.

Perkelti pele per norėdami pamatyti stoties vardą.

Tada spustelėkite, norėdami matyti oro stebėjimo ir prognozės.

Norėdami pakeisti žemėlapį: spustelėkite ant žalios mygtukų su juodo kryžiaus žemyn,; žalią mygtuką su brūkšneliu, jei norite nutolinti; arba žalių rodyklių gretimoms žemėlapius.


METAR-TAF: